Mausdale, Pennsylvania
Current Conditions -  °F | °C
As of 11:53 AM on Monday 22 Dec 2014 (Local Time) from KSEG Reporting Station
Overcast Overcast  
Wind Chill: 33°   Ceiling: 4200
Heat Index: 33°   Visibility: 10mi
Dew Point: 26°   Wind: 3mph
Humidity: 75%   Direction: 310°NW
Pressure: 30.26"   Gusts: NA
Location:  41.0117°N, 76.6578°W
Report Text: KSEG 221653Z AUTO 31003KT 10SM OVC042 01/M03 A3026 RMK AO2 SLP253 T00061033
Loading
Personal Weather Stations






























Interactive Weather Map New forecast layout! Learn more

10-Day Weather Forecast

Advertisements
Track Severe Weather on mobile